sensor_id;sensor_type;location;lat;lon;timestamp;pressure;altitude;pressure_sealevel;temperature;humidity
27304;BME280;14791;52.392;13.092;2024-01-15T00:02:06;98985.41;;;6.79;58.06
27304;BME280;14791;52.392;13.092;2024-01-15T00:04:39;98976.36;;;6.76;58.08
27304;BME280;14791;52.392;13.092;2024-01-15T00:07:08;98970.32;;;6.74;58.23
27304;BME280;14791;52.392;13.092;2024-01-15T00:09:39;98975.73;;;6.72;58.26
27304;BME280;14791;52.392;13.092;2024-01-15T00:12:08;98973.30;;;6.69;58.22
27304;BME280;14791;52.392;13.092;2024-01-15T00:14:37;98968.00;;;6.69;58.23
27304;BME280;14791;52.392;13.092;2024-01-15T00:17:06;98965.84;;;6.69;58.31
27304;BME280;14791;52.392;13.092;2024-01-15T00:19:34;98954.38;;;6.68;58.40
27304;BME280;14791;52.392;13.092;2024-01-15T00:22:03;98956.06;;;6.69;58.38
27304;BME280;14791;52.392;13.092;2024-01-15T00:24:32;98951.98;;;6.71;58.36
27304;BME280;14791;52.392;13.092;2024-01-15T00:27:01;98934.35;;;6.70;58.28
27304;BME280;14791;52.392;13.092;2024-01-15T00:29:30;98941.72;;;6.72;58.28
27304;BME280;14791;52.392;13.092;2024-01-15T00:31:59;98923.73;;;6.70;58.27
27304;BME280;14791;52.392;13.092;2024-01-15T00:34:28;98923.16;;;6.72;58.23
27304;BME280;14791;52.392;13.092;2024-01-15T00:36:57;98927.52;;;6.73;58.16
27304;BME280;14791;52.392;13.092;2024-01-15T00:39:25;98923.53;;;6.73;58.12
27304;BME280;14791;52.392;13.092;2024-01-15T00:41:54;98925.70;;;6.73;58.11
27304;BME280;14791;52.392;13.092;2024-01-15T00:44:23;98925.56;;;6.75;58.06
27304;BME280;14791;52.392;13.092;2024-01-15T00:46:52;98921.59;;;6.75;58.00
27304;BME280;14791;52.392;13.092;2024-01-15T00:49:21;98906.40;;;6.77;57.94
27304;BME280;14791;52.392;13.092;2024-01-15T00:51:50;98909.05;;;6.77;57.92
27304;BME280;14791;52.392;13.092;2024-01-15T00:54:19;98905.81;;;6.79;57.78
27304;BME280;14791;52.392;13.092;2024-01-15T00:56:48;98906.65;;;6.79;57.89
27304;BME280;14791;52.392;13.092;2024-01-15T00:59:16;98905.22;;;6.81;57.83
27304;BME280;14791;52.392;13.092;2024-01-15T01:01:46;98902.08;;;6.81;57.79
27304;BME280;14791;52.392;13.092;2024-01-15T01:04:15;98894.95;;;6.82;57.72
27304;BME280;14791;52.392;13.092;2024-01-15T01:06:44;98888.70;;;6.83;57.69
27304;BME280;14791;52.392;13.092;2024-01-15T01:09:13;98906.45;;;6.83;57.66
27304;BME280;14791;52.392;13.092;2024-01-15T01:11:42;98890.98;;;6.82;57.62
27304;BME280;14791;52.392;13.092;2024-01-15T01:14:11;98869.05;;;6.80;57.64
27304;BME280;14791;52.392;13.092;2024-01-15T01:16:40;98899.17;;;6.79;57.56
27304;BME280;14791;52.392;13.092;2024-01-15T01:19:08;98893.14;;;6.77;57.50
27304;BME280;14791;52.392;13.092;2024-01-15T01:21:37;98890.72;;;6.74;56.99
27304;BME280;14791;52.392;13.092;2024-01-15T01:24:06;98887.19;;;6.68;56.71
27304;BME280;14791;52.392;13.092;2024-01-15T01:26:35;98891.75;;;6.60;56.86
27304;BME280;14791;52.392;13.092;2024-01-15T01:29:04;98888.45;;;6.51;57.11
27304;BME280;14791;52.392;13.092;2024-01-15T01:31:33;98896.03;;;6.44;57.31
27304;BME280;14791;52.392;13.092;2024-01-15T01:34:02;98885.87;;;6.38;57.54
27304;BME280;14791;52.392;13.092;2024-01-15T01:36:32;98881.38;;;6.33;57.73
27304;BME280;14791;52.392;13.092;2024-01-15T01:39:00;98885.70;;;6.28;57.81
27304;BME280;14791;52.392;13.092;2024-01-15T01:41:29;98887.36;;;6.24;57.90
27304;BME280;14791;52.392;13.092;2024-01-15T01:43:58;98889.27;;;6.22;58.07
27304;BME280;14791;52.392;13.092;2024-01-15T01:46:28;98889.86;;;6.20;58.27
27304;BME280;14791;52.392;13.092;2024-01-15T01:48:58;98891.41;;;6.16;58.33
27304;BME280;14791;52.392;13.092;2024-01-15T01:51:28;98881.16;;;6.17;58.36
27304;BME280;14791;52.392;13.092;2024-01-15T01:53:57;98891.06;;;6.15;58.46
27304;BME280;14791;52.392;13.092;2024-01-15T01:56:27;98891.16;;;6.14;58.53
27304;BME280;14791;52.392;13.092;2024-01-15T01:58:56;98883.56;;;6.15;58.49
27304;BME280;14791;52.392;13.092;2024-01-15T02:01:25;98887.19;;;6.14;58.51
27304;BME280;14791;52.392;13.092;2024-01-15T02:03:54;98881.40;;;6.14;58.55
27304;BME280;14791;52.392;13.092;2024-01-15T02:06:24;98887.09;;;6.15;58.52
27304;BME280;14791;52.392;13.092;2024-01-15T02:08:53;98874.77;;;6.14;58.52
27304;BME280;14791;52.392;13.092;2024-01-15T02:11:23;98879.84;;;6.17;58.51
27304;BME280;14791;52.392;13.092;2024-01-15T02:13:52;98899.62;;;6.19;58.51
27304;BME280;14791;52.392;13.092;2024-01-15T02:16:21;98887.20;;;6.20;58.53
27304;BME280;14791;52.392;13.092;2024-01-15T02:18:50;98869.13;;;6.19;58.49
27304;BME280;14791;52.392;13.092;2024-01-15T02:21:19;98865.52;;;6.20;58.49
27304;BME280;14791;52.392;13.092;2024-01-15T02:23:47;98884.94;;;6.21;58.41
27304;BME280;14791;52.392;13.092;2024-01-15T02:26:16;98855.05;;;6.18;58.21
27304;BME280;14791;52.392;13.092;2024-01-15T02:28:46;98865.26;;;6.17;58.19
27304;BME280;14791;52.392;13.092;2024-01-15T02:31:15;98860.58;;;6.15;58.12
27304;BME280;14791;52.392;13.092;2024-01-15T02:33:44;98853.21;;;6.13;58.06
27304;BME280;14791;52.392;13.092;2024-01-15T02:36:15;98860.42;;;6.11;58.00
27304;BME280;14791;52.392;13.092;2024-01-15T02:38:44;98861.36;;;6.10;58.04
27304;BME280;14791;52.392;13.092;2024-01-15T02:41:13;98852.32;;;6.07;58.03
27304;BME280;14791;52.392;13.092;2024-01-15T02:43:42;98862.19;;;6.05;58.17
27304;BME280;14791;52.392;13.092;2024-01-15T02:46:11;98859.53;;;6.05;58.23
27304;BME280;14791;52.392;13.092;2024-01-15T02:48:40;98848.58;;;6.04;58.13
27304;BME280;14791;52.392;13.092;2024-01-15T02:51:09;98853.39;;;6.05;58.17
27304;BME280;14791;52.392;13.092;2024-01-15T02:53:38;98850.84;;;6.03;58.10
27304;BME280;14791;52.392;13.092;2024-01-15T02:56:08;98848.32;;;6.02;58.08
27304;BME280;14791;52.392;13.092;2024-01-15T02:58:36;98848.19;;;6.03;58.06
27304;BME280;14791;52.392;13.092;2024-01-15T03:01:05;98846.52;;;6.02;58.08
27304;BME280;14791;52.392;13.092;2024-01-15T03:03:34;98824.47;;;6.02;58.02
27304;BME280;14791;52.392;13.092;2024-01-15T03:06:04;98836.75;;;6.03;57.94
27304;BME280;14791;52.392;13.092;2024-01-15T03:08:32;98837.23;;;6.02;57.95
27304;BME280;14791;52.392;13.092;2024-01-15T03:11:03;98842.53;;;6.02;57.98
27304;BME280;14791;52.392;13.092;2024-01-15T03:13:35;98841.70;;;6.02;57.96
27304;BME280;14791;52.392;13.092;2024-01-15T03:16:05;98826.53;;;6.04;57.94
27304;BME280;14791;52.392;13.092;2024-01-15T03:18:34;98827.13;;;6.02;57.90
27304;BME280;14791;52.392;13.092;2024-01-15T03:21:05;98832.42;;;6.02;57.88
27304;BME280;14791;52.392;13.092;2024-01-15T03:23:34;98843.27;;;6.04;57.92
27304;BME280;14791;52.392;13.092;2024-01-15T03:26:03;98834.00;;;6.04;57.97
27304;BME280;14791;52.392;13.092;2024-01-15T03:28:32;98837.74;;;6.07;57.93
27304;BME280;14791;52.392;13.092;2024-01-15T03:31:01;98827.30;;;6.11;58.01
27304;BME280;14791;52.392;13.092;2024-01-15T03:33:30;98827.64;;;6.12;57.92
27304;BME280;14791;52.392;13.092;2024-01-15T03:35:59;98833.09;;;6.16;57.94
27304;BME280;14791;52.392;13.092;2024-01-15T03:38:29;98831.19;;;6.18;57.90
27304;BME280;14791;52.392;13.092;2024-01-15T03:40:57;98836.35;;;6.20;57.82
27304;BME280;14791;52.392;13.092;2024-01-15T03:43:27;98819.27;;;6.24;57.80
27304;BME280;14791;52.392;13.092;2024-01-15T03:45:56;98813.73;;;6.27;57.70
27304;BME280;14791;52.392;13.092;2024-01-15T03:48:25;98826.53;;;6.28;57.62
27304;BME280;14791;52.392;13.092;2024-01-15T03:50:54;98813.04;;;6.31;57.56
27304;BME280;14791;52.392;13.092;2024-01-15T03:53:23;98808.95;;;6.32;57.49
27304;BME280;14791;52.392;13.092;2024-01-15T03:55:52;98809.80;;;6.33;57.50
27304;BME280;14791;52.392;13.092;2024-01-15T03:58:21;98806.91;;;6.36;57.49
27304;BME280;14791;52.392;13.092;2024-01-15T04:00:50;98807.75;;;6.36;57.42
27304;BME280;14791;52.392;13.092;2024-01-15T04:03:19;98813.30;;;6.39;57.44
27304;BME280;14791;52.392;13.092;2024-01-15T04:05:48;98812.84;;;6.39;57.44
27304;BME280;14791;52.392;13.092;2024-01-15T04:08:17;98803.42;;;6.41;57.36
27304;BME280;14791;52.392;13.092;2024-01-15T04:10:46;98799.23;;;6.44;57.30
27304;BME280;14791;52.392;13.092;2024-01-15T04:13:15;98799.59;;;6.45;57.22
27304;BME280;14791;52.392;13.092;2024-01-15T04:15:44;98811.87;;;6.46;57.15
27304;BME280;14791;52.392;13.092;2024-01-15T04:18:13;98794.64;;;6.46;56.96
27304;BME280;14791;52.392;13.092;2024-01-15T04:20:42;98784.90;;;6.47;57.09
27304;BME280;14791;52.392;13.092;2024-01-15T04:23:11;98791.05;;;6.47;56.97
27304;BME280;14791;52.392;13.092;2024-01-15T04:25:40;98788.25;;;6.49;56.95
27304;BME280;14791;52.392;13.092;2024-01-15T04:28:10;98791.78;;;6.49;56.90
27304;BME280;14791;52.392;13.092;2024-01-15T04:30:39;98794.05;;;6.48;56.95
27304;BME280;14791;52.392;13.092;2024-01-15T04:33:08;98796.00;;;6.52;56.86
27304;BME280;14791;52.392;13.092;2024-01-15T04:35:38;98790.56;;;6.53;56.76
27304;BME280;14791;52.392;13.092;2024-01-15T04:38:07;98790.94;;;6.54;56.68
27304;BME280;14791;52.392;13.092;2024-01-15T04:40:35;98797.44;;;6.56;56.66
27304;BME280;14791;52.392;13.092;2024-01-15T04:43:04;98796.49;;;6.57;56.68
27304;BME280;14791;52.392;13.092;2024-01-15T04:45:33;98804.94;;;6.56;56.66
27304;BME280;14791;52.392;13.092;2024-01-15T04:48:02;98790.21;;;6.58;56.60
27304;BME280;14791;52.392;13.092;2024-01-15T04:50:31;98783.48;;;6.59;56.42
27304;BME280;14791;52.392;13.092;2024-01-15T04:53:00;98786.12;;;6.59;56.43
27304;BME280;14791;52.392;13.092;2024-01-15T04:55:29;98765.26;;;6.60;56.50
27304;BME280;14791;52.392;13.092;2024-01-15T04:57:58;98774.33;;;6.64;56.53
27304;BME280;14791;52.392;13.092;2024-01-15T05:00:27;98772.03;;;6.65;56.43
27304;BME280;14791;52.392;13.092;2024-01-15T05:02:55;98777.72;;;6.66;56.52
27304;BME280;14791;52.392;13.092;2024-01-15T05:05:24;98777.23;;;6.66;56.38
27304;BME280;14791;52.392;13.092;2024-01-15T05:07:53;98781.70;;;6.66;56.32
27304;BME280;14791;52.392;13.092;2024-01-15T05:10:22;98767.70;;;6.64;56.35
27304;BME280;14791;52.392;13.092;2024-01-15T05:12:51;98772.77;;;6.61;56.46
27304;BME280;14791;52.392;13.092;2024-01-15T05:15:20;98782.88;;;6.62;56.49
27304;BME280;14791;52.392;13.092;2024-01-15T05:17:49;98766.97;;;6.62;56.54
27304;BME280;14791;52.392;13.092;2024-01-15T05:20:18;98764.17;;;6.63;56.56
27304;BME280;14791;52.392;13.092;2024-01-15T05:22:46;98766.23;;;6.65;56.54
27304;BME280;14791;52.392;13.092;2024-01-15T05:25:15;98765.78;;;6.66;56.48
27304;BME280;14791;52.392;13.092;2024-01-15T05:27:44;98751.30;;;6.70;56.44
27304;BME280;14791;52.392;13.092;2024-01-15T05:30:14;98774.23;;;6.71;56.54
27304;BME280;14791;52.392;13.092;2024-01-15T05:32:43;98749.27;;;6.73;56.46
27304;BME280;14791;52.392;13.092;2024-01-15T05:35:12;98768.08;;;6.76;56.37
27304;BME280;14791;52.392;13.092;2024-01-15T05:37:43;98762.63;;;6.77;56.27
27304;BME280;14791;52.392;13.092;2024-01-15T05:40:14;98769.16;;;6.79;56.25
27304;BME280;14791;52.392;13.092;2024-01-15T05:42:43;98749.16;;;6.80;56.36
27304;BME280;14791;52.392;13.092;2024-01-15T05:45:12;98748.66;;;6.81;56.29
27304;BME280;14791;52.392;13.092;2024-01-15T05:47:40;98752.99;;;6.82;55.86
27304;BME280;14791;52.392;13.092;2024-01-15T05:50:10;98749.27;;;6.79;55.64
27304;BME280;14791;52.392;13.092;2024-01-15T05:52:39;98751.08;;;6.73;55.66
27304;BME280;14791;52.392;13.092;2024-01-15T05:55:08;98745.88;;;6.66;55.78
27304;BME280;14791;52.392;13.092;2024-01-15T05:57:37;98761.28;;;6.60;55.99
27304;BME280;14791;52.392;13.092;2024-01-15T06:00:07;98756.81;;;6.55;56.25
27304;BME280;14791;52.392;13.092;2024-01-15T06:02:38;98771.64;;;6.52;56.42
27304;BME280;14791;52.392;13.092;2024-01-15T06:05:07;98758.03;;;6.51;56.50
27304;BME280;14791;52.392;13.092;2024-01-15T06:07:36;98748.37;;;6.50;56.62
27304;BME280;14791;52.392;13.092;2024-01-15T06:10:06;98760.30;;;6.50;56.73
27304;BME280;14791;52.392;13.092;2024-01-15T06:12:35;98747.88;;;6.51;56.67
27304;BME280;14791;52.392;13.092;2024-01-15T06:15:04;98753.08;;;6.52;56.78
27304;BME280;14791;52.392;13.092;2024-01-15T06:17:33;98748.12;;;6.53;56.72
27304;BME280;14791;52.392;13.092;2024-01-15T06:20:02;98752.84;;;6.55;56.64
27304;BME280;14791;52.392;13.092;2024-01-15T06:22:32;98771.19;;;6.58;56.60
27304;BME280;14791;52.392;13.092;2024-01-15T06:25:01;98741.14;;;6.58;56.51
27304;BME280;14791;52.392;13.092;2024-01-15T06:27:30;98756.95;;;6.59;56.59
27304;BME280;14791;52.392;13.092;2024-01-15T06:29:59;98751.30;;;6.58;56.59
27304;BME280;14791;52.392;13.092;2024-01-15T06:32:28;98746.45;;;6.58;56.43
27304;BME280;14791;52.392;13.092;2024-01-15T06:34:58;98745.27;;;6.56;56.44
27304;BME280;14791;52.392;13.092;2024-01-15T06:37:26;98748.12;;;6.53;56.58
27304;BME280;14791;52.392;13.092;2024-01-15T06:39:55;98741.73;;;6.50;56.75
27304;BME280;14791;52.392;13.092;2024-01-15T06:42:25;98741.49;;;6.48;56.86
27304;BME280;14791;52.392;13.092;2024-01-15T06:44:54;98746.80;;;6.48;56.95
27304;BME280;14791;52.392;13.092;2024-01-15T06:47:23;98749.94;;;6.47;56.99
27304;BME280;14791;52.392;13.092;2024-01-15T06:49:52;98742.23;;;6.50;57.01
27304;BME280;14791;52.392;13.092;2024-01-15T06:52:21;98747.42;;;6.51;56.95
27304;BME280;14791;52.392;13.092;2024-01-15T06:54:49;98752.10;;;6.53;57.05
27304;BME280;14791;52.392;13.092;2024-01-15T06:57:18;98745.27;;;6.56;57.01
27304;BME280;14791;52.392;13.092;2024-01-15T06:59:48;98746.69;;;6.60;56.93
27304;BME280;14791;52.392;13.092;2024-01-15T07:02:17;98753.46;;;6.65;56.80
27304;BME280;14791;52.392;13.092;2024-01-15T07:04:46;98753.22;;;6.68;56.76
27304;BME280;14791;52.392;13.092;2024-01-15T07:07:15;98749.62;;;6.69;56.73
27304;BME280;14791;52.392;13.092;2024-01-15T07:09:44;98752.03;;;6.72;56.65
27304;BME280;14791;52.392;13.092;2024-01-15T07:12:13;98739.48;;;6.74;56.54
27304;BME280;14791;52.392;13.092;2024-01-15T07:14:44;98753.84;;;6.77;56.54
27304;BME280;14791;52.392;13.092;2024-01-15T07:17:13;98758.55;;;6.79;56.54
27304;BME280;14791;52.392;13.092;2024-01-15T07:19:41;98768.22;;;6.80;56.51
27304;BME280;14791;52.392;13.092;2024-01-15T07:22:10;98748.55;;;6.83;56.46
27304;BME280;14791;52.392;13.092;2024-01-15T07:24:39;98771.35;;;6.85;56.32
27304;BME280;14791;52.392;13.092;2024-01-15T07:27:08;98777.39;;;6.87;56.44
27304;BME280;14791;52.392;13.092;2024-01-15T07:29:37;98787.77;;;6.90;56.41
27304;BME280;14791;52.392;13.092;2024-01-15T07:32:06;98805.74;;;6.92;56.22
27304;BME280;14791;52.392;13.092;2024-01-15T07:34:35;98813.45;;;6.95;56.38
27304;BME280;14791;52.392;13.092;2024-01-15T07:37:04;98812.02;;;6.97;56.22
27304;BME280;14791;52.392;13.092;2024-01-15T07:39:33;98808.64;;;7.00;56.23
27304;BME280;14791;52.392;13.092;2024-01-15T07:42:02;98812.13;;;7.01;56.34
27304;BME280;14791;52.392;13.092;2024-01-15T07:44:31;98818.06;;;7.05;56.29
27304;BME280;14791;52.392;13.092;2024-01-15T07:47:00;98825.05;;;7.06;56.35
27304;BME280;14791;52.392;13.092;2024-01-15T07:49:29;98802.23;;;7.09;56.16
27304;BME280;14791;52.392;13.092;2024-01-15T07:51:58;98806.95;;;7.11;56.16
27304;BME280;14791;52.392;13.092;2024-01-15T07:54:27;98821.55;;;7.11;56.15
27304;BME280;14791;52.392;13.092;2024-01-15T07:57:00;98819.27;;;7.12;56.04
27304;BME280;14791;52.392;13.092;2024-01-15T07:59:31;98815.30;;;7.12;55.95
27304;BME280;14791;52.392;13.092;2024-01-15T08:02:00;98827.97;;;7.14;56.14
27304;BME280;14791;52.392;13.092;2024-01-15T08:04:29;98813.72;;;7.15;56.15
27304;BME280;14791;52.392;13.092;2024-01-15T08:06:58;98816.72;;;7.16;55.61
27304;BME280;14791;52.392;13.092;2024-01-15T08:09:27;98816.12;;;7.12;55.36
27304;BME280;14791;52.392;13.092;2024-01-15T08:11:57;98817.47;;;7.07;55.38
27304;BME280;14791;52.392;13.092;2024-01-15T08:14:26;98823.23;;;7.00;55.54
27304;BME280;14791;52.392;13.092;2024-01-15T08:16:55;98824.42;;;6.96;55.77
27304;BME280;14791;52.392;13.092;2024-01-15T08:19:24;98832.28;;;6.92;55.87
27304;BME280;14791;52.392;13.092;2024-01-15T08:21:53;98826.59;;;6.91;55.99
27304;BME280;14791;52.392;13.092;2024-01-15T08:24:22;98819.61;;;6.90;56.03
27304;BME280;14791;52.392;13.092;2024-01-15T08:26:50;98818.28;;;6.90;56.19
27304;BME280;14791;52.392;13.092;2024-01-15T08:29:19;98811.64;;;6.90;56.15
27304;BME280;14791;52.392;13.092;2024-01-15T08:31:48;98812.00;;;6.91;56.28
27304;BME280;14791;52.392;13.092;2024-01-15T08:34:17;98801.77;;;6.92;56.24
27304;BME280;14791;52.392;13.092;2024-01-15T08:36:47;98811.40;;;6.93;56.27
27304;BME280;14791;52.392;13.092;2024-01-15T08:39:15;98818.17;;;6.97;56.27
27304;BME280;14791;52.392;13.092;2024-01-15T08:41:46;98810.06;;;6.99;56.31
27304;BME280;14791;52.392;13.092;2024-01-15T08:44:15;98812.62;;;7.00;56.33
27304;BME280;14791;52.392;13.092;2024-01-15T08:46:44;98816.00;;;7.02;56.32
27304;BME280;14791;52.392;13.092;2024-01-15T08:49:13;98827.35;;;7.05;56.25
27304;BME280;14791;52.392;13.092;2024-01-15T08:51:42;98819.14;;;7.08;56.27
27304;BME280;14791;52.392;13.092;2024-01-15T08:54:11;98836.29;;;7.09;56.21
27304;BME280;14791;52.392;13.092;2024-01-15T08:56:40;98834.82;;;7.11;56.13
27304;BME280;14791;52.392;13.092;2024-01-15T08:59:09;98848.97;;;7.11;56.02
27304;BME280;14791;52.392;13.092;2024-01-15T09:01:39;98844.50;;;7.12;56.03
27304;BME280;14791;52.392;13.092;2024-01-15T09:04:08;98855.36;;;7.14;56.13
27304;BME280;14791;52.392;13.092;2024-01-15T09:06:36;98856.69;;;7.14;56.15
27304;BME280;14791;52.392;13.092;2024-01-15T09:09:05;98848.23;;;7.15;56.13
27304;BME280;14791;52.392;13.092;2024-01-15T09:11:34;98848.58;;;7.16;56.09
27304;BME280;14791;52.392;13.092;2024-01-15T09:14:05;98854.27;;;7.17;55.98
27304;BME280;14791;52.392;13.092;2024-01-15T09:16:34;98853.78;;;7.17;56.08
27304;BME280;14791;52.392;13.092;2024-01-15T09:19:03;98859.94;;;7.18;56.18
27304;BME280;14791;52.392;13.092;2024-01-15T09:21:32;98860.66;;;7.20;56.02
27304;BME280;14791;52.392;13.092;2024-01-15T09:24:00;98842.08;;;7.20;56.01
27304;BME280;14791;52.392;13.092;2024-01-15T09:26:30;98853.19;;;7.19;55.96
27304;BME280;14791;52.392;13.092;2024-01-15T09:28:59;98861.05;;;7.21;56.09
27304;BME280;14791;52.392;13.092;2024-01-15T09:31:29;98865.03;;;7.21;56.11
27304;BME280;14791;52.392;13.092;2024-01-15T09:33:58;98863.21;;;7.21;55.93
27304;BME280;14791;52.392;13.092;2024-01-15T09:36:28;98869.36;;;7.22;56.06
27304;BME280;14791;52.392;13.092;2024-01-15T09:38:56;98852.34;;;7.24;55.93
27304;BME280;14791;52.392;13.092;2024-01-15T09:41:26;98876.97;;;7.27;56.04
27304;BME280;14791;52.392;13.092;2024-01-15T09:43:55;98886.27;;;7.27;55.98
27304;BME280;14791;52.392;13.092;2024-01-15T09:46:24;98868.90;;;7.28;55.92
27304;BME280;14791;52.392;13.092;2024-01-15T09:48:53;98876.48;;;7.27;55.81
27304;BME280;14791;52.392;13.092;2024-01-15T09:51:24;98875.54;;;7.28;55.97
27304;BME280;14791;52.392;13.092;2024-01-15T09:53:54;98870.23;;;7.28;55.98
27304;BME280;14791;52.392;13.092;2024-01-15T09:56:24;98871.17;;;7.27;55.82
27304;BME280;14791;52.392;13.092;2024-01-15T09:58:53;98858.49;;;7.25;55.78
27304;BME280;14791;52.392;13.092;2024-01-15T10:01:23;98867.05;;;7.23;55.71
27304;BME280;14791;52.392;13.092;2024-01-15T10:03:52;98876.59;;;7.20;55.90
27304;BME280;14791;52.392;13.092;2024-01-15T10:06:22;98853.78;;;7.17;56.00
27304;BME280;14791;52.392;13.092;2024-01-15T10:08:52;98856.55;;;7.16;56.16
27304;BME280;14791;52.392;13.092;2024-01-15T10:11:21;98848.58;;;7.16;56.24
27304;BME280;14791;52.392;13.092;2024-01-15T10:13:50;98851.62;;;7.17;56.27
27304;BME280;14791;52.392;13.092;2024-01-15T10:16:20;98845.57;;;7.20;56.17
27304;BME280;14791;52.392;13.092;2024-01-15T10:18:50;98849.09;;;7.21;56.10
27304;BME280;14791;52.392;13.092;2024-01-15T10:21:19;98861.14;;;7.25;56.20
27304;BME280;14791;52.392;13.092;2024-01-15T10:23:49;98859.82;;;7.25;56.17
27304;BME280;14791;52.392;13.092;2024-01-15T10:26:18;98846.78;;;7.28;56.05
27304;BME280;14791;52.392;13.092;2024-01-15T10:28:50;98847.89;;;7.31;56.13
27304;BME280;14791;52.392;13.092;2024-01-15T10:31:20;98839.68;;;7.34;56.13
27304;BME280;14791;52.392;13.092;2024-01-15T10:33:49;98844.88;;;7.35;56.08
27304;BME280;14791;52.392;13.092;2024-01-15T10:36:18;98855.75;;;7.38;55.97
27304;BME280;14791;52.392;13.092;2024-01-15T10:38:47;98837.88;;;7.40;56.02
27304;BME280;14791;52.392;13.092;2024-01-15T10:41:16;98830.75;;;7.40;55.98
27304;BME280;14791;52.392;13.092;2024-01-15T10:43:45;98832.56;;;7.45;56.12
27304;BME280;14791;52.392;13.092;2024-01-15T10:46:14;98846.92;;;7.49;56.09
27304;BME280;14791;52.392;13.092;2024-01-15T10:48:43;98843.06;;;7.53;56.08
27304;BME280;14791;52.392;13.092;2024-01-15T10:51:13;98847.17;;;7.57;55.97
27304;BME280;14791;52.392;13.092;2024-01-15T10:53:43;98841.23;;;7.59;55.96
27304;BME280;14791;52.392;13.092;2024-01-15T10:56:13;98842.83;;;7.61;55.92
27304;BME280;14791;52.392;13.092;2024-01-15T10:58:43;98852.83;;;7.63;55.85
27304;BME280;14791;52.392;13.092;2024-01-15T11:01:13;98843.52;;;7.63;55.76
27304;BME280;14791;52.392;13.092;2024-01-15T11:03:43;98855.38;;;7.65;55.83
27304;BME280;14791;52.392;13.092;2024-01-15T11:06:19;98849.33;;;7.63;55.78
27304;BME280;14791;52.392;13.092;2024-01-15T11:08:52;98854.41;;;7.60;55.83
27304;BME280;14791;52.392;13.092;2024-01-15T11:11:22;98853.44;;;7.56;55.95
27304;BME280;14791;52.392;13.092;2024-01-15T11:13:51;98856.34;;;7.53;56.03
27304;BME280;14791;52.392;13.092;2024-01-15T11:16:21;98851.88;;;7.48;56.22
27304;BME280;14791;52.392;13.092;2024-01-15T11:19:01;98844.52;;;7.45;56.55
27304;BME280;14791;52.392;13.092;2024-01-15T11:21:31;98853.81;;;7.45;56.73
27304;BME280;14791;52.392;13.092;2024-01-15T11:24:01;98853.43;;;7.44;56.84
27304;BME280;14791;52.392;13.092;2024-01-15T11:26:32;98853.92;;;7.44;56.76
27304;BME280;14791;52.392;13.092;2024-01-15T11:29:05;98852.10;;;7.44;56.76
27304;BME280;14791;52.392;13.092;2024-01-15T11:34:10;98862.38;;;7.43;56.82
27304;BME280;14791;52.392;13.092;2024-01-15T11:42:04;98873.25;;;7.40;56.82
27304;BME280;14791;52.392;13.092;2024-01-15T11:44:33;98857.91;;;7.38;56.70
27304;BME280;14791;52.392;13.092;2024-01-15T11:47:10;98871.44;;;7.35;56.65
27304;BME280;14791;52.392;13.092;2024-01-15T11:50:02;98869.13;;;7.36;56.63
27304;BME280;14791;52.392;13.092;2024-01-15T11:52:37;98867.08;;;7.34;56.69
27304;BME280;14791;52.392;13.092;2024-01-15T11:55:19;98871.80;;;7.31;56.77
27304;BME280;14791;52.392;13.092;2024-01-15T11:57:52;98877.56;;;7.30;56.80
27304;BME280;14791;52.392;13.092;2024-01-15T12:00:24;98870.58;;;7.29;56.88
27304;BME280;14791;52.392;13.092;2024-01-15T12:02:53;98875.54;;;7.28;56.82
27304;BME280;14791;52.392;13.092;2024-01-15T12:05:23;98873.23;;;7.29;56.70
27304;BME280;14791;52.392;13.092;2024-01-15T12:07:52;98878.05;;;7.30;56.70
27304;BME280;14791;52.392;13.092;2024-01-15T12:10:21;98880.70;;;7.30;56.60
27304;BME280;14791;52.392;13.092;2024-01-15T12:15:42;98871.55;;;7.28;56.54
27304;BME280;14791;52.392;13.092;2024-01-15T12:18:14;98887.84;;;7.23;56.65
27304;BME280;14791;52.392;13.092;2024-01-15T12:20:44;98885.64;;;7.23;56.64
27304;BME280;14791;52.392;13.092;2024-01-15T12:23:15;98881.31;;;7.22;56.69
27304;BME280;14791;52.392;13.092;2024-01-15T12:25:45;98882.53;;;7.23;56.75
27304;BME280;14791;52.392;13.092;2024-01-15T12:28:15;98891.93;;;7.22;56.64
27304;BME280;14791;52.392;13.092;2024-01-15T12:30:46;98891.20;;;7.20;56.64
27304;BME280;14791;52.392;13.092;2024-01-15T12:33:18;98889.14;;;7.18;56.73
27304;BME280;14791;52.392;13.092;2024-01-15T12:35:48;98890.47;;;7.12;56.49
27304;BME280;14791;52.392;13.092;2024-01-15T12:38:19;98889.24;;;7.05;56.60
27304;BME280;14791;52.392;13.092;2024-01-15T12:40:48;98892.84;;;6.98;56.74
27304;BME280;14791;52.392;13.092;2024-01-15T12:43:18;98890.18;;;6.93;57.00
27304;BME280;14791;52.392;13.092;2024-01-15T12:45:47;98894.86;;;6.89;57.15
27304;BME280;14791;52.392;13.092;2024-01-15T12:48:16;98888.11;;;6.85;57.28
27304;BME280;14791;52.392;13.092;2024-01-15T12:50:46;98900.27;;;6.82;57.38
27304;BME280;14791;52.392;13.092;2024-01-15T12:53:15;98894.70;;;6.79;57.51
27304;BME280;14791;52.392;13.092;2024-01-15T12:55:45;98907.52;;;6.80;57.64
27304;BME280;14791;52.392;13.092;2024-01-15T12:58:14;98898.34;;;6.78;57.69
27304;BME280;14791;52.392;13.092;2024-01-15T13:00:43;98900.02;;;6.79;57.71
27304;BME280;14791;52.392;13.092;2024-01-15T13:03:13;98900.02;;;6.79;57.68
27304;BME280;14791;52.392;13.092;2024-01-15T13:05:42;98907.52;;;6.80;57.76
27304;BME280;14791;52.392;13.092;2024-01-15T13:08:12;98900.41;;;6.80;57.78
27304;BME280;14791;52.392;13.092;2024-01-15T13:10:41;98914.51;;;6.81;57.78
27304;BME280;14791;52.392;13.092;2024-01-15T13:13:11;98910.42;;;6.83;57.70
27304;BME280;14791;52.392;13.092;2024-01-15T13:15:40;98920.17;;;6.82;57.67
27304;BME280;14791;52.392;13.092;2024-01-15T13:18:09;98917.16;;;6.81;57.65
27304;BME280;14791;52.392;13.092;2024-01-15T13:20:38;98913.18;;;6.81;57.65
27304;BME280;14791;52.392;13.092;2024-01-15T13:23:07;98912.44;;;6.79;57.67